sensor_id;sensor_type;location;lat;lon;timestamp;temperature;humidity
15426;DHT22;7812;50.072;7.036;2023-12-28T00:01:27;6.50;99.90
15426;DHT22;7812;50.072;7.036;2023-12-28T00:03:52;6.90;99.90
15426;DHT22;7812;50.072;7.036;2023-12-28T00:06:18;7.30;99.90
15426;DHT22;7812;50.072;7.036;2023-12-28T00:08:43;7.50;99.90
15426;DHT22;7812;50.072;7.036;2023-12-28T00:11:09;7.70;99.90
15426;DHT22;7812;50.072;7.036;2023-12-28T00:13:35;7.80;99.90
15426;DHT22;7812;50.072;7.036;2023-12-28T00:16:01;7.90;99.90
15426;DHT22;7812;50.072;7.036;2023-12-28T00:18:27;7.90;99.90
15426;DHT22;7812;50.072;7.036;2023-12-28T00:20:53;7.90;99.90
15426;DHT22;7812;50.072;7.036;2023-12-28T00:23:18;7.90;99.90
15426;DHT22;7812;50.072;7.036;2023-12-28T00:25:45;7.90;99.90
15426;DHT22;7812;50.072;7.036;2023-12-28T00:28:11;7.90;99.90
15426;DHT22;7812;50.072;7.036;2023-12-28T00:30:38;7.90;99.90
15426;DHT22;7812;50.072;7.036;2023-12-28T00:33:04;7.90;99.90
15426;DHT22;7812;50.072;7.036;2023-12-28T00:35:29;7.80;99.90
15426;DHT22;7812;50.072;7.036;2023-12-28T00:37:55;7.80;99.90
15426;DHT22;7812;50.072;7.036;2023-12-28T00:40:21;7.80;99.90
15426;DHT22;7812;50.072;7.036;2023-12-28T00:42:47;7.70;99.90
15426;DHT22;7812;50.072;7.036;2023-12-28T00:45:14;7.70;99.90
15426;DHT22;7812;50.072;7.036;2023-12-28T00:47:40;7.70;99.90
15426;DHT22;7812;50.072;7.036;2023-12-28T00:50:09;7.60;99.90
15426;DHT22;7812;50.072;7.036;2023-12-28T00:52:37;7.60;99.90
15426;DHT22;7812;50.072;7.036;2023-12-28T00:55:04;7.70;99.90
15426;DHT22;7812;50.072;7.036;2023-12-28T00:57:30;7.60;99.90
15426;DHT22;7812;50.072;7.036;2023-12-28T00:59:56;7.70;99.90
15426;DHT22;7812;50.072;7.036;2023-12-28T01:02:21;7.70;99.90
15426;DHT22;7812;50.072;7.036;2023-12-28T01:04:47;7.80;99.90
15426;DHT22;7812;50.072;7.036;2023-12-28T01:07:12;7.80;99.90
15426;DHT22;7812;50.072;7.036;2023-12-28T01:09:38;7.80;99.90
15426;DHT22;7812;50.072;7.036;2023-12-28T01:12:04;7.80;99.90
15426;DHT22;7812;50.072;7.036;2023-12-28T01:14:30;7.90;99.90
15426;DHT22;7812;50.072;7.036;2023-12-28T01:16:56;7.90;99.90
15426;DHT22;7812;50.072;7.036;2023-12-28T01:19:21;7.90;99.90
15426;DHT22;7812;50.072;7.036;2023-12-28T01:21:49;7.90;99.90
15426;DHT22;7812;50.072;7.036;2023-12-28T01:24:15;7.90;99.90
15426;DHT22;7812;50.072;7.036;2023-12-28T01:26:40;7.80;99.90
15426;DHT22;7812;50.072;7.036;2023-12-28T01:29:06;7.80;99.90
15426;DHT22;7812;50.072;7.036;2023-12-28T01:31:32;7.70;99.90
15426;DHT22;7812;50.072;7.036;2023-12-28T01:33:58;7.60;99.90
15426;DHT22;7812;50.072;7.036;2023-12-28T01:36:23;7.60;99.90
15426;DHT22;7812;50.072;7.036;2023-12-28T01:38:49;7.60;99.90
15426;DHT22;7812;50.072;7.036;2023-12-28T01:41:15;7.60;99.90
15426;DHT22;7812;50.072;7.036;2023-12-28T01:43:44;7.60;99.90
15426;DHT22;7812;50.072;7.036;2023-12-28T01:46:20;7.50;99.90
15426;DHT22;7812;50.072;7.036;2023-12-28T01:48:50;7.40;99.90
15426;DHT22;7812;50.072;7.036;2023-12-28T01:51:16;7.40;99.90
15426;DHT22;7812;50.072;7.036;2023-12-28T01:53:47;7.40;99.90
15426;DHT22;7812;50.072;7.036;2023-12-28T01:56:13;7.40;99.90
15426;DHT22;7812;50.072;7.036;2023-12-28T01:58:40;7.40;99.90
15426;DHT22;7812;50.072;7.036;2023-12-28T02:01:06;7.40;99.90
15426;DHT22;7812;50.072;7.036;2023-12-28T02:03:32;7.40;99.90
15426;DHT22;7812;50.072;7.036;2023-12-28T02:05:59;7.30;99.90
15426;DHT22;7812;50.072;7.036;2023-12-28T02:08:26;7.30;99.90
15426;DHT22;7812;50.072;7.036;2023-12-28T02:10:51;7.30;99.90
15426;DHT22;7812;50.072;7.036;2023-12-28T02:13:17;7.40;99.90
15426;DHT22;7812;50.072;7.036;2023-12-28T02:15:45;7.30;99.90
15426;DHT22;7812;50.072;7.036;2023-12-28T02:18:14;7.30;99.90
15426;DHT22;7812;50.072;7.036;2023-12-28T02:20:43;7.30;99.90
15426;DHT22;7812;50.072;7.036;2023-12-28T02:23:09;7.30;99.90
15426;DHT22;7812;50.072;7.036;2023-12-28T02:25:35;7.30;99.90
15426;DHT22;7812;50.072;7.036;2023-12-28T02:28:01;7.30;99.90
15426;DHT22;7812;50.072;7.036;2023-12-28T02:30:27;7.30;99.90
15426;DHT22;7812;50.072;7.036;2023-12-28T02:35:36;7.30;99.90
15426;DHT22;7812;50.072;7.036;2023-12-28T02:38:06;7.20;99.90
15426;DHT22;7812;50.072;7.036;2023-12-28T02:40:37;7.30;99.90
15426;DHT22;7812;50.072;7.036;2023-12-28T02:43:07;7.30;99.90
15426;DHT22;7812;50.072;7.036;2023-12-28T02:45:33;7.30;99.90
15426;DHT22;7812;50.072;7.036;2023-12-28T02:47:59;7.30;99.90
15426;DHT22;7812;50.072;7.036;2023-12-28T02:50:24;7.40;99.90
15426;DHT22;7812;50.072;7.036;2023-12-28T02:52:50;7.30;99.90
15426;DHT22;7812;50.072;7.036;2023-12-28T02:55:16;7.40;99.90
15426;DHT22;7812;50.072;7.036;2023-12-28T02:57:43;7.30;99.90
15426;DHT22;7812;50.072;7.036;2023-12-28T03:00:10;7.30;99.90
15426;DHT22;7812;50.072;7.036;2023-12-28T03:02:36;7.30;99.90
15426;DHT22;7812;50.072;7.036;2023-12-28T03:05:06;7.40;99.90
15426;DHT22;7812;50.072;7.036;2023-12-28T03:07:32;7.40;99.90
15426;DHT22;7812;50.072;7.036;2023-12-28T03:09:58;7.30;99.90
15426;DHT22;7812;50.072;7.036;2023-12-28T03:12:24;7.30;99.90
15426;DHT22;7812;50.072;7.036;2023-12-28T03:14:50;7.30;99.90
15426;DHT22;7812;50.072;7.036;2023-12-28T03:17:16;7.30;99.90
15426;DHT22;7812;50.072;7.036;2023-12-28T03:19:41;7.30;99.90
15426;DHT22;7812;50.072;7.036;2023-12-28T03:22:07;7.30;99.90
15426;DHT22;7812;50.072;7.036;2023-12-28T03:24:32;7.30;99.90
15426;DHT22;7812;50.072;7.036;2023-12-28T03:26:58;7.40;99.90
15426;DHT22;7812;50.072;7.036;2023-12-28T03:29:24;7.40;99.90
15426;DHT22;7812;50.072;7.036;2023-12-28T03:31:50;7.40;99.90
15426;DHT22;7812;50.072;7.036;2023-12-28T03:34:16;7.40;99.90
15426;DHT22;7812;50.072;7.036;2023-12-28T03:36:41;7.40;99.90
15426;DHT22;7812;50.072;7.036;2023-12-28T03:39:08;7.40;99.90
15426;DHT22;7812;50.072;7.036;2023-12-28T03:41:33;7.40;99.90
15426;DHT22;7812;50.072;7.036;2023-12-28T03:43:59;7.40;99.90
15426;DHT22;7812;50.072;7.036;2023-12-28T03:46:24;7.50;99.90
15426;DHT22;7812;50.072;7.036;2023-12-28T03:48:52;7.60;99.90
15426;DHT22;7812;50.072;7.036;2023-12-28T03:51:18;7.60;99.90
15426;DHT22;7812;50.072;7.036;2023-12-28T03:53:43;7.60;99.90
15426;DHT22;7812;50.072;7.036;2023-12-28T03:56:25;7.60;99.90
15426;DHT22;7812;50.072;7.036;2023-12-28T03:58:52;7.60;99.90
15426;DHT22;7812;50.072;7.036;2023-12-28T04:01:20;7.70;99.90
15426;DHT22;7812;50.072;7.036;2023-12-28T04:03:46;7.60;99.90
15426;DHT22;7812;50.072;7.036;2023-12-28T04:06:12;7.70;99.90
15426;DHT22;7812;50.072;7.036;2023-12-28T04:08:39;7.70;99.90
15426;DHT22;7812;50.072;7.036;2023-12-28T04:11:05;7.80;99.90
15426;DHT22;7812;50.072;7.036;2023-12-28T04:13:30;7.80;99.90
15426;DHT22;7812;50.072;7.036;2023-12-28T04:15:56;7.80;99.90
15426;DHT22;7812;50.072;7.036;2023-12-28T04:18:23;7.80;99.90
15426;DHT22;7812;50.072;7.036;2023-12-28T04:20:49;7.80;99.90
15426;DHT22;7812;50.072;7.036;2023-12-28T04:23:15;7.90;99.90
15426;DHT22;7812;50.072;7.036;2023-12-28T04:25:41;7.90;99.90
15426;DHT22;7812;50.072;7.036;2023-12-28T04:28:07;7.90;99.90
15426;DHT22;7812;50.072;7.036;2023-12-28T04:30:33;7.90;99.90
15426;DHT22;7812;50.072;7.036;2023-12-28T04:33:00;8.00;99.90
15426;DHT22;7812;50.072;7.036;2023-12-28T04:35:26;8.00;99.90
15426;DHT22;7812;50.072;7.036;2023-12-28T04:37:52;8.00;99.90
15426;DHT22;7812;50.072;7.036;2023-12-28T04:40:17;8.10;99.90
15426;DHT22;7812;50.072;7.036;2023-12-28T04:42:43;8.10;99.90
15426;DHT22;7812;50.072;7.036;2023-12-28T04:45:09;8.10;99.90
15426;DHT22;7812;50.072;7.036;2023-12-28T04:47:38;8.10;99.90
15426;DHT22;7812;50.072;7.036;2023-12-28T04:50:05;8.10;99.90
15426;DHT22;7812;50.072;7.036;2023-12-28T04:52:31;8.10;99.90
15426;DHT22;7812;50.072;7.036;2023-12-28T04:54:57;8.10;99.90
15426;DHT22;7812;50.072;7.036;2023-12-28T04:57:23;8.10;99.90
15426;DHT22;7812;50.072;7.036;2023-12-28T04:59:53;8.20;99.90
15426;DHT22;7812;50.072;7.036;2023-12-28T05:02:19;8.20;99.90
15426;DHT22;7812;50.072;7.036;2023-12-28T05:04:44;8.20;99.90
15426;DHT22;7812;50.072;7.036;2023-12-28T05:07:10;8.30;99.90
15426;DHT22;7812;50.072;7.036;2023-12-28T05:09:35;8.30;99.90
15426;DHT22;7812;50.072;7.036;2023-12-28T05:12:01;8.20;99.90
15426;DHT22;7812;50.072;7.036;2023-12-28T05:14:27;8.20;99.90
15426;DHT22;7812;50.072;7.036;2023-12-28T05:16:54;8.30;99.90
15426;DHT22;7812;50.072;7.036;2023-12-28T05:19:19;8.30;99.90
15426;DHT22;7812;50.072;7.036;2023-12-28T05:21:45;8.40;99.90
15426;DHT22;7812;50.072;7.036;2023-12-28T05:24:11;8.40;99.90
15426;DHT22;7812;50.072;7.036;2023-12-28T05:26:37;8.40;99.90
15426;DHT22;7812;50.072;7.036;2023-12-28T05:29:03;8.40;99.90
15426;DHT22;7812;50.072;7.036;2023-12-28T05:31:28;8.50;99.90
15426;DHT22;7812;50.072;7.036;2023-12-28T05:33:54;8.50;99.90
15426;DHT22;7812;50.072;7.036;2023-12-28T05:36:21;8.50;99.90
15426;DHT22;7812;50.072;7.036;2023-12-28T05:38:48;8.50;99.90
15426;DHT22;7812;50.072;7.036;2023-12-28T05:41:13;8.50;99.90
15426;DHT22;7812;50.072;7.036;2023-12-28T05:43:39;8.50;99.90
15426;DHT22;7812;50.072;7.036;2023-12-28T05:46:05;8.50;99.90
15426;DHT22;7812;50.072;7.036;2023-12-28T05:48:30;8.50;99.90
15426;DHT22;7812;50.072;7.036;2023-12-28T05:50:59;8.50;99.90
15426;DHT22;7812;50.072;7.036;2023-12-28T05:53:26;8.50;99.90
15426;DHT22;7812;50.072;7.036;2023-12-28T05:55:53;8.50;99.90
15426;DHT22;7812;50.072;7.036;2023-12-28T05:58:19;8.50;99.90
15426;DHT22;7812;50.072;7.036;2023-12-28T06:00:44;8.70;99.90
15426;DHT22;7812;50.072;7.036;2023-12-28T06:03:12;8.70;99.90
15426;DHT22;7812;50.072;7.036;2023-12-28T06:05:37;8.70;99.90
15426;DHT22;7812;50.072;7.036;2023-12-28T06:08:04;8.70;99.90
15426;DHT22;7812;50.072;7.036;2023-12-28T06:10:29;8.70;99.90
15426;DHT22;7812;50.072;7.036;2023-12-28T06:12:55;8.70;99.90
15426;DHT22;7812;50.072;7.036;2023-12-28T06:15:21;8.70;99.90
15426;DHT22;7812;50.072;7.036;2023-12-28T06:17:46;8.80;99.90
15426;DHT22;7812;50.072;7.036;2023-12-28T06:20:12;8.80;99.90
15426;DHT22;7812;50.072;7.036;2023-12-28T06:22:38;8.80;99.90
15426;DHT22;7812;50.072;7.036;2023-12-28T06:25:04;8.80;99.90
15426;DHT22;7812;50.072;7.036;2023-12-28T06:27:31;8.90;99.90
15426;DHT22;7812;50.072;7.036;2023-12-28T06:29:57;8.80;99.90
15426;DHT22;7812;50.072;7.036;2023-12-28T06:32:23;8.80;99.90
15426;DHT22;7812;50.072;7.036;2023-12-28T06:34:48;8.90;99.90
15426;DHT22;7812;50.072;7.036;2023-12-28T06:37:15;8.90;99.90
15426;DHT22;7812;50.072;7.036;2023-12-28T06:39:40;8.80;99.90
15426;DHT22;7812;50.072;7.036;2023-12-28T06:42:06;8.90;99.90
15426;DHT22;7812;50.072;7.036;2023-12-28T06:44:32;8.80;99.90
15426;DHT22;7812;50.072;7.036;2023-12-28T06:46:58;8.70;99.90
15426;DHT22;7812;50.072;7.036;2023-12-28T06:49:25;8.70;99.90
15426;DHT22;7812;50.072;7.036;2023-12-28T06:51:51;8.80;99.90
15426;DHT22;7812;50.072;7.036;2023-12-28T06:54:17;8.90;99.90
15426;DHT22;7812;50.072;7.036;2023-12-28T06:56:43;9.00;99.90
15426;DHT22;7812;50.072;7.036;2023-12-28T06:59:09;9.10;99.90
15426;DHT22;7812;50.072;7.036;2023-12-28T07:01:38;9.10;99.90
15426;DHT22;7812;50.072;7.036;2023-12-28T07:04:04;9.10;99.90
15426;DHT22;7812;50.072;7.036;2023-12-28T07:06:30;9.10;99.90
15426;DHT22;7812;50.072;7.036;2023-12-28T07:08:56;9.00;99.90
15426;DHT22;7812;50.072;7.036;2023-12-28T07:11:21;9.10;99.90
15426;DHT22;7812;50.072;7.036;2023-12-28T07:13:47;9.10;99.90
15426;DHT22;7812;50.072;7.036;2023-12-28T07:16:13;9.00;99.90
15426;DHT22;7812;50.072;7.036;2023-12-28T07:18:39;9.10;99.90
15426;DHT22;7812;50.072;7.036;2023-12-28T07:21:05;9.10;99.90
15426;DHT22;7812;50.072;7.036;2023-12-28T07:23:34;9.10;99.90
15426;DHT22;7812;50.072;7.036;2023-12-28T07:26:00;9.10;99.90
15426;DHT22;7812;50.072;7.036;2023-12-28T07:28:26;9.20;99.90
15426;DHT22;7812;50.072;7.036;2023-12-28T07:30:51;9.20;99.90
15426;DHT22;7812;50.072;7.036;2023-12-28T07:33:17;9.20;99.90
15426;DHT22;7812;50.072;7.036;2023-12-28T07:35:42;9.20;99.90
15426;DHT22;7812;50.072;7.036;2023-12-28T07:38:08;9.20;99.90
15426;DHT22;7812;50.072;7.036;2023-12-28T07:40:34;9.20;99.90
15426;DHT22;7812;50.072;7.036;2023-12-28T07:42:59;9.20;99.90
15426;DHT22;7812;50.072;7.036;2023-12-28T07:45:26;9.30;99.90
15426;DHT22;7812;50.072;7.036;2023-12-28T07:47:52;9.20;99.90
15426;DHT22;7812;50.072;7.036;2023-12-28T07:50:18;9.20;99.90
15426;DHT22;7812;50.072;7.036;2023-12-28T07:52:45;9.20;99.90
15426;DHT22;7812;50.072;7.036;2023-12-28T07:55:12;9.20;99.90
15426;DHT22;7812;50.072;7.036;2023-12-28T07:57:38;9.20;99.90
15426;DHT22;7812;50.072;7.036;2023-12-28T08:00:04;9.20;99.90
15426;DHT22;7812;50.072;7.036;2023-12-28T08:02:31;9.30;99.90
15426;DHT22;7812;50.072;7.036;2023-12-28T08:04:56;9.20;99.90
15426;DHT22;7812;50.072;7.036;2023-12-28T08:07:22;9.20;99.90
15426;DHT22;7812;50.072;7.036;2023-12-28T08:09:48;9.20;99.90
15426;DHT22;7812;50.072;7.036;2023-12-28T08:12:14;9.30;99.90
15426;DHT22;7812;50.072;7.036;2023-12-28T08:14:39;9.30;99.90
15426;DHT22;7812;50.072;7.036;2023-12-28T08:17:05;9.30;99.90
15426;DHT22;7812;50.072;7.036;2023-12-28T08:19:31;9.30;99.90
15426;DHT22;7812;50.072;7.036;2023-12-28T08:21:56;9.30;99.90
15426;DHT22;7812;50.072;7.036;2023-12-28T08:24:22;9.40;99.90
15426;DHT22;7812;50.072;7.036;2023-12-28T08:26:47;9.40;99.90
15426;DHT22;7812;50.072;7.036;2023-12-28T08:29:13;9.40;99.90
15426;DHT22;7812;50.072;7.036;2023-12-28T08:31:39;9.40;99.90
15426;DHT22;7812;50.072;7.036;2023-12-28T08:34:04;9.40;99.90
15426;DHT22;7812;50.072;7.036;2023-12-28T08:36:30;9.40;99.90
15426;DHT22;7812;50.072;7.036;2023-12-28T08:38:56;9.40;99.90
15426;DHT22;7812;50.072;7.036;2023-12-28T08:41:22;9.40;99.90
15426;DHT22;7812;50.072;7.036;2023-12-28T08:43:50;9.40;99.90
15426;DHT22;7812;50.072;7.036;2023-12-28T08:46:16;9.40;99.90
15426;DHT22;7812;50.072;7.036;2023-12-28T08:48:45;9.40;99.90
15426;DHT22;7812;50.072;7.036;2023-12-28T08:51:10;9.50;99.90
15426;DHT22;7812;50.072;7.036;2023-12-28T08:53:36;9.50;99.90
15426;DHT22;7812;50.072;7.036;2023-12-28T08:56:12;9.50;99.90
15426;DHT22;7812;50.072;7.036;2023-12-28T08:58:38;9.50;99.90
15426;DHT22;7812;50.072;7.036;2023-12-28T09:01:04;9.40;99.90
15426;DHT22;7812;50.072;7.036;2023-12-28T09:03:29;9.50;99.90
15426;DHT22;7812;50.072;7.036;2023-12-28T09:05:55;9.50;99.90
15426;DHT22;7812;50.072;7.036;2023-12-28T09:08:20;9.50;99.90
15426;DHT22;7812;50.072;7.036;2023-12-28T09:10:46;9.50;99.90
15426;DHT22;7812;50.072;7.036;2023-12-28T09:13:15;9.50;99.90
15426;DHT22;7812;50.072;7.036;2023-12-28T09:15:42;9.50;99.90
15426;DHT22;7812;50.072;7.036;2023-12-28T09:18:08;9.60;99.90
15426;DHT22;7812;50.072;7.036;2023-12-28T09:20:34;9.60;99.90
15426;DHT22;7812;50.072;7.036;2023-12-28T09:23:01;9.60;99.90
15426;DHT22;7812;50.072;7.036;2023-12-28T09:25:26;9.60;99.90
15426;DHT22;7812;50.072;7.036;2023-12-28T09:27:52;9.60;99.90
15426;DHT22;7812;50.072;7.036;2023-12-28T09:30:19;9.60;99.90
15426;DHT22;7812;50.072;7.036;2023-12-28T09:32:44;9.70;99.90
15426;DHT22;7812;50.072;7.036;2023-12-28T09:35:10;9.70;99.90
15426;DHT22;7812;50.072;7.036;2023-12-28T09:37:36;9.70;99.90
15426;DHT22;7812;50.072;7.036;2023-12-28T09:40:01;9.70;99.90
15426;DHT22;7812;50.072;7.036;2023-12-28T09:42:35;9.80;99.90
15426;DHT22;7812;50.072;7.036;2023-12-28T09:45:03;10.00;99.90
15426;DHT22;7812;50.072;7.036;2023-12-28T09:47:32;10.10;99.90
15426;DHT22;7812;50.072;7.036;2023-12-28T09:49:58;10.10;99.90
15426;DHT22;7812;50.072;7.036;2023-12-28T09:52:23;10.10;99.90
15426;DHT22;7812;50.072;7.036;2023-12-28T09:54:49;10.10;99.90
15426;DHT22;7812;50.072;7.036;2023-12-28T09:57:15;10.10;99.90
15426;DHT22;7812;50.072;7.036;2023-12-28T09:59:41;10.10;99.90
15426;DHT22;7812;50.072;7.036;2023-12-28T10:02:07;10.30;99.90
15426;DHT22;7812;50.072;7.036;2023-12-28T10:04:33;10.40;99.90
15426;DHT22;7812;50.072;7.036;2023-12-28T10:06:59;10.40;99.90
15426;DHT22;7812;50.072;7.036;2023-12-28T10:09:25;10.40;99.90
15426;DHT22;7812;50.072;7.036;2023-12-28T10:11:53;10.30;99.90
15426;DHT22;7812;50.072;7.036;2023-12-28T10:14:19;10.30;99.90
15426;DHT22;7812;50.072;7.036;2023-12-28T10:16:45;10.30;99.90
15426;DHT22;7812;50.072;7.036;2023-12-28T10:19:11;10.40;99.90
15426;DHT22;7812;50.072;7.036;2023-12-28T10:21:39;10.60;99.90
15426;DHT22;7812;50.072;7.036;2023-12-28T10:24:05;10.80;99.90
15426;DHT22;7812;50.072;7.036;2023-12-28T10:26:32;10.80;99.90
15426;DHT22;7812;50.072;7.036;2023-12-28T10:29:02;10.80;99.90
15426;DHT22;7812;50.072;7.036;2023-12-28T10:31:29;10.80;99.90
15426;DHT22;7812;50.072;7.036;2023-12-28T10:33:58;10.90;99.90
15426;DHT22;7812;50.072;7.036;2023-12-28T10:36:24;10.90;99.90
15426;DHT22;7812;50.072;7.036;2023-12-28T10:38:53;10.90;99.90
15426;DHT22;7812;50.072;7.036;2023-12-28T10:41:20;10.90;99.90
15426;DHT22;7812;50.072;7.036;2023-12-28T10:43:47;10.90;99.90
15426;DHT22;7812;50.072;7.036;2023-12-28T10:46:41;10.90;99.90
15426;DHT22;7812;50.072;7.036;2023-12-28T10:49:17;10.90;99.90
15426;DHT22;7812;50.072;7.036;2023-12-28T10:51:43;10.90;99.90
15426;DHT22;7812;50.072;7.036;2023-12-28T10:57:05;11.00;99.90
15426;DHT22;7812;50.072;7.036;2023-12-28T11:02:16;11.10;99.90
15426;DHT22;7812;50.072;7.036;2023-12-28T11:04:48;11.10;99.90
15426;DHT22;7812;50.072;7.036;2023-12-28T11:07:18;11.10;99.90
15426;DHT22;7812;50.072;7.036;2023-12-28T11:09:44;11.10;99.90
15426;DHT22;7812;50.072;7.036;2023-12-28T11:12:10;11.20;99.90
15426;DHT22;7812;50.072;7.036;2023-12-28T11:14:39;11.40;99.90
15426;DHT22;7812;50.072;7.036;2023-12-28T11:17:05;11.30;99.90
15426;DHT22;7812;50.072;7.036;2023-12-28T11:19:32;11.40;99.90
15426;DHT22;7812;50.072;7.036;2023-12-28T11:22:00;11.40;99.90
15426;DHT22;7812;50.072;7.036;2023-12-28T11:24:28;11.20;99.90
15426;DHT22;7812;50.072;7.036;2023-12-28T11:26:55;11.10;99.90
15426;DHT22;7812;50.072;7.036;2023-12-28T11:29:21;11.10;99.90
15426;DHT22;7812;50.072;7.036;2023-12-28T11:31:58;11.00;99.90
15426;DHT22;7812;50.072;7.036;2023-12-28T11:34:33;11.00;99.90
15426;DHT22;7812;50.072;7.036;2023-12-28T11:37:12;10.90;99.90
15426;DHT22;7812;50.072;7.036;2023-12-28T11:39:41;10.90;99.90
15426;DHT22;7812;50.072;7.036;2023-12-28T11:42:10;10.90;99.90
15426;DHT22;7812;50.072;7.036;2023-12-28T11:44:43;11.00;99.90
15426;DHT22;7812;50.072;7.036;2023-12-28T11:47:13;11.00;99.90
15426;DHT22;7812;50.072;7.036;2023-12-28T11:49:39;11.00;99.90
15426;DHT22;7812;50.072;7.036;2023-12-28T11:52:21;11.00;99.90
15426;DHT22;7812;50.072;7.036;2023-12-28T11:54:50;11.10;99.90
15426;DHT22;7812;50.072;7.036;2023-12-28T11:57:16;11.30;99.90
15426;DHT22;7812;50.072;7.036;2023-12-28T11:59:42;11.30;99.90
15426;DHT22;7812;50.072;7.036;2023-12-28T12:02:09;11.20;99.90
15426;DHT22;7812;50.072;7.036;2023-12-28T12:04:35;11.20;99.90
15426;DHT22;7812;50.072;7.036;2023-12-28T12:07:04;11.10;99.90
15426;DHT22;7812;50.072;7.036;2023-12-28T12:09:30;11.10;99.90
15426;DHT22;7812;50.072;7.036;2023-12-28T12:12:01;11.50;99.90
15426;DHT22;7812;50.072;7.036;2023-12-28T12:14:27;12.20;99.90
15426;DHT22;7812;50.072;7.036;2023-12-28T12:16:54;12.30;99.90
15426;DHT22;7812;50.072;7.036;2023-12-28T12:19:23;12.00;99.90
15426;DHT22;7812;50.072;7.036;2023-12-28T12:21:49;11.80;99.90
15426;DHT22;7812;50.072;7.036;2023-12-28T12:24:17;11.60;99.90
15426;DHT22;7812;50.072;7.036;2023-12-28T12:26:48;11.50;99.90
15426;DHT22;7812;50.072;7.036;2023-12-28T12:29:14;11.60;99.90
15426;DHT22;7812;50.072;7.036;2023-12-28T12:31:40;11.80;99.90
15426;DHT22;7812;50.072;7.036;2023-12-28T12:34:11;11.70;99.90
15426;DHT22;7812;50.072;7.036;2023-12-28T12:36:37;11.60;99.90
15426;DHT22;7812;50.072;7.036;2023-12-28T12:39:03;11.50;99.90
15426;DHT22;7812;50.072;7.036;2023-12-28T12:41:35;11.60;99.90
15426;DHT22;7812;50.072;7.036;2023-12-28T12:44:01;11.70;99.90
15426;DHT22;7812;50.072;7.036;2023-12-28T12:46:27;11.70;99.90
15426;DHT22;7812;50.072;7.036;2023-12-28T12:49:00;11.70;99.90
15426;DHT22;7812;50.072;7.036;2023-12-28T12:51:28;11.70;99.90
15426;DHT22;7812;50.072;7.036;2023-12-28T12:54:01;11.70;99.90
15426;DHT22;7812;50.072;7.036;2023-12-28T12:56:29;11.70;99.90
15426;DHT22;7812;50.072;7.036;2023-12-28T12:58:55;11.60;99.90
15426;DHT22;7812;50.072;7.036;2023-12-28T13:01:25;11.60;99.90
15426;DHT22;7812;50.072;7.036;2023-12-28T13:03:51;11.60;99.90
15426;DHT22;7812;50.072;7.036;2023-12-28T13:06:18;11.70;99.90
15426;DHT22;7812;50.072;7.036;2023-12-28T13:08:43;11.80;99.90
15426;DHT22;7812;50.072;7.036;2023-12-28T13:11:09;11.90;99.90
15426;DHT22;7812;50.072;7.036;2023-12-28T13:13:35;11.90;99.90
15426;DHT22;7812;50.072;7.036;2023-12-28T13:16:02;11.80;99.90
15426;DHT22;7812;50.072;7.036;2023-12-28T13:18:28;11.80;99.90
15426;DHT22;7812;50.072;7.036;2023-12-28T13:20:54;11.80;99.90
15426;DHT22;7812;50.072;7.036;2023-12-28T13:23:19;11.70;99.90
15426;DHT22;7812;50.072;7.036;2023-12-28T13:25:45;11.60;99.90
15426;DHT22;7812;50.072;7.036;2023-12-28T13:28:11;11.50;99.90
15426;DHT22;7812;50.072;7.036;2023-12-28T13:30:38;11.50;99.90
15426;DHT22;7812;50.072;7.036;2023-12-28T13:33:04;11.30;99.90
15426;DHT22;7812;50.072;7.036;2023-12-28T13:35:30;11.30;99.90
15426;DHT22;7812;50.072;7.036;2023-12-28T13:37:59;11.20;99.90
15426;DHT22;7812;50.072;7.036;2023-12-28T13:40:24;11.20;99.90
15426;DHT22;7812;50.072;7.036;2023-12-28T13:42:50;11.20;99.90
15426;DHT22;7812;50.072;7.036;2023-12-28T13:45:16;11.30;99.90
15426;DHT22;7812;50.072;7.036;2023-12-28T13:47:42;11.30;99.90
15426;DHT22;7812;50.072;7.036;2023-12-28T13:50:08;11.30;99.90
15426;DHT22;7812;50.072;7.036;2023-12-28T13:52:33;11.30;99.90
15426;DHT22;7812;50.072;7.036;2023-12-28T13:54:59;11.30;99.90
15426;DHT22;7812;50.072;7.036;2023-12-28T13:57:25;11.30;99.90
15426;DHT22;7812;50.072;7.036;2023-12-28T13:59:51;11.20;99.90
15426;DHT22;7812;50.072;7.036;2023-12-28T14:02:16;11.20;99.90
15426;DHT22;7812;50.072;7.036;2023-12-28T14:04:42;11.10;99.90
15426;DHT22;7812;50.072;7.036;2023-12-28T14:07:08;11.10;99.90
15426;DHT22;7812;50.072;7.036;2023-12-28T14:09:33;11.10;99.90
15426;DHT22;7812;50.072;7.036;2023-12-28T14:12:01;11.00;99.90
15426;DHT22;7812;50.072;7.036;2023-12-28T14:14:27;11.00;99.90
15426;DHT22;7812;50.072;7.036;2023-12-28T14:16:52;10.90;99.90
15426;DHT22;7812;50.072;7.036;2023-12-28T14:19:18;10.90;99.90
15426;DHT22;7812;50.072;7.036;2023-12-28T14:21:44;11.00;99.90
15426;DHT22;7812;50.072;7.036;2023-12-28T14:24:11;11.00;99.90
15426;DHT22;7812;50.072;7.036;2023-12-28T14:26:41;11.00;99.90
15426;DHT22;7812;50.072;7.036;2023-12-28T14:29:08;11.10;99.90
15426;DHT22;7812;50.072;7.036;2023-12-28T14:31:34;10.90;99.90
15426;DHT22;7812;50.072;7.036;2023-12-28T14:34:01;10.80;99.90
15426;DHT22;7812;50.072;7.036;2023-12-28T14:36:35;10.90;99.90
15426;DHT22;7812;50.072;7.036;2023-12-28T14:39:05;11.00;99.90
15426;DHT22;7812;50.072;7.036;2023-12-28T14:41:31;10.90;99.90
15426;DHT22;7812;50.072;7.036;2023-12-28T14:43:57;11.00;99.90
15426;DHT22;7812;50.072;7.036;2023-12-28T14:46:24;10.90;99.90
15426;DHT22;7812;50.072;7.036;2023-12-28T14:48:50;10.90;99.90
15426;DHT22;7812;50.072;7.036;2023-12-28T14:51:15;10.80;99.90
15426;DHT22;7812;50.072;7.036;2023-12-28T14:53:41;10.70;99.90
15426;DHT22;7812;50.072;7.036;2023-12-28T14:56:07;10.70;99.90
15426;DHT22;7812;50.072;7.036;2023-12-28T14:58:32;10.70;99.90
15426;DHT22;7812;50.072;7.036;2023-12-28T15:00:58;10.60;99.90
15426;DHT22;7812;50.072;7.036;2023-12-28T15:03:24;10.60;99.90
15426;DHT22;7812;50.072;7.036;2023-12-28T15:05:51;10.50;99.90
15426;DHT22;7812;50.072;7.036;2023-12-28T15:08:17;10.50;99.90
15426;DHT22;7812;50.072;7.036;2023-12-28T15:10:42;10.40;99.90
15426;DHT22;7812;50.072;7.036;2023-12-28T15:13:09;10.40;99.90
15426;DHT22;7812;50.072;7.036;2023-12-28T15:15:35;10.50;99.90
15426;DHT22;7812;50.072;7.036;2023-12-28T15:18:01;10.40;99.90
15426;DHT22;7812;50.072;7.036;2023-12-28T15:20:27;10.40;99.90
15426;DHT22;7812;50.072;7.036;2023-12-28T15:22:54;10.40;99.90
15426;DHT22;7812;50.072;7.036;2023-12-28T15:25:20;10.30;99.90
15426;DHT22;7812;50.072;7.036;2023-12-28T15:27:46;10.30;99.90
15426;DHT22;7812;50.072;7.036;2023-12-28T15:30:13;10.30;99.90
15426;DHT22;7812;50.072;7.036;2023-12-28T15:32:40;10.20;99.90
15426;DHT22;7812;50.072;7.036;2023-12-28T15:35:06;10.20;99.90
15426;DHT22;7812;50.072;7.036;2023-12-28T15:37:32;10.20;99.90
15426;DHT22;7812;50.072;7.036;2023-12-28T15:39:58;10.20;99.90
15426;DHT22;7812;50.072;7.036;2023-12-28T15:42:24;10.10;99.90
15426;DHT22;7812;50.072;7.036;2023-12-28T15:44:50;10.10;99.90
15426;DHT22;7812;50.072;7.036;2023-12-28T15:47:15;10.10;99.90
15426;DHT22;7812;50.072;7.036;2023-12-28T15:49:45;10.00;99.90
15426;DHT22;7812;50.072;7.036;2023-12-28T15:52:10;10.10;99.90
15426;DHT22;7812;50.072;7.036;2023-12-28T15:54:36;10.00;99.90
15426;DHT22;7812;50.072;7.036;2023-12-28T15:57:02;10.00;99.90
15426;DHT22;7812;50.072;7.036;2023-12-28T15:59:28;10.00;99.90